createdAt,value
2022-11-27T00:01:34.522Z,7.00
2022-11-27T00:04:02.456Z,7.00
2022-11-27T00:06:32.040Z,7.00
2022-11-27T00:09:03.259Z,7.00
2022-11-27T00:11:32.172Z,7.00
2022-11-27T00:14:00.414Z,7.00
2022-11-27T00:16:29.143Z,7.00
2022-11-27T00:18:57.969Z,7.00
2022-11-27T00:21:34.786Z,6.90
2022-11-27T00:24:07.332Z,7.00
2022-11-27T00:26:38.153Z,6.90
2022-11-27T00:29:07.638Z,6.90
2022-11-27T00:31:37.563Z,7.00
2022-11-27T00:34:08.711Z,7.00
2022-11-27T00:36:36.747Z,6.90
2022-11-27T00:39:04.964Z,6.90
2022-11-27T00:41:33.178Z,6.90
2022-11-27T00:44:01.066Z,7.00
2022-11-27T00:46:32.019Z,6.90
2022-11-27T00:49:03.187Z,6.90
2022-11-27T00:51:31.038Z,6.90
2022-11-27T00:53:59.016Z,6.90
2022-11-27T00:56:34.650Z,6.90
2022-11-27T00:59:03.153Z,6.90
2022-11-27T01:01:38.285Z,6.90
2022-11-27T01:04:10.821Z,7.00
2022-11-27T01:06:38.468Z,7.00
2022-11-27T01:09:06.138Z,7.00
2022-11-27T01:11:35.823Z,7.00
2022-11-27T01:14:18.290Z,7.10
2022-11-27T01:16:46.102Z,7.00
2022-11-27T01:19:16.885Z,7.00
2022-11-27T01:21:44.498Z,7.00
2022-11-27T01:24:14.495Z,7.00
2022-11-27T01:26:43.252Z,7.00
2022-11-27T01:29:11.949Z,7.00
2022-11-27T01:31:39.994Z,7.00
2022-11-27T01:34:15.091Z,6.90
2022-11-27T01:36:42.805Z,7.00
2022-11-27T01:39:19.873Z,7.00
2022-11-27T01:41:48.792Z,7.00
2022-11-27T01:44:25.718Z,7.00
2022-11-27T01:47:09.619Z,7.00
2022-11-27T01:49:47.039Z,7.00
2022-11-27T01:52:34.888Z,7.00
2022-11-27T01:55:28.699Z,7.00
2022-11-27T01:58:24.626Z,7.00
2022-11-27T02:00:52.521Z,7.00
2022-11-27T02:03:20.858Z,7.10
2022-11-27T02:05:48.480Z,7.10
2022-11-27T02:08:17.760Z,7.10
2022-11-27T02:11:08.591Z,7.10
2022-11-27T02:13:47.442Z,7.10
2022-11-27T02:17:28.916Z,7.10
2022-11-27T02:20:23.144Z,7.10
2022-11-27T02:23:40.651Z,7.10
2022-11-27T02:26:36.236Z,7.30
2022-11-27T02:29:08.629Z,7.20
2022-11-27T02:31:58.256Z,7.20
2022-11-27T02:34:38.536Z,7.20
2022-11-27T02:37:40.042Z,7.20
2022-11-27T02:40:34.879Z,7.20
2022-11-27T02:43:22.618Z,7.20
2022-11-27T02:45:52.185Z,7.20
2022-11-27T02:48:25.542Z,7.20
2022-11-27T02:50:55.019Z,7.20
2022-11-27T02:53:31.479Z,7.20
2022-11-27T02:56:00.868Z,7.20
2022-11-27T02:58:29.599Z,7.20
2022-11-27T03:00:58.118Z,7.20
2022-11-27T03:03:33.277Z,7.10
2022-11-27T03:06:10.806Z,7.20
2022-11-27T03:08:55.548Z,7.20
2022-11-27T03:11:23.683Z,7.20
2022-11-27T03:13:55.345Z,7.20
2022-11-27T03:17:08.648Z,7.20
2022-11-27T03:19:56.424Z,7.10
2022-11-27T03:22:26.391Z,7.10
2022-11-27T03:24:54.680Z,7.10
2022-11-27T03:27:29.992Z,7.10
2022-11-27T03:30:01.220Z,7.10
2022-11-27T03:32:31.107Z,7.10
2022-11-27T03:34:58.907Z,7.10
2022-11-27T03:37:27.906Z,7.10
2022-11-27T03:39:55.593Z,7.10
2022-11-27T03:42:51.636Z,7.10
2022-11-27T03:45:36.170Z,7.10
2022-11-27T03:48:34.867Z,7.10
2022-11-27T03:51:22.060Z,7.10
2022-11-27T03:54:04.893Z,7.10
2022-11-27T03:56:41.627Z,7.10
2022-11-27T03:59:37.526Z,7.10
2022-11-27T04:02:05.266Z,7.10
2022-11-27T04:04:32.923Z,7.10
2022-11-27T04:07:00.545Z,7.10
2022-11-27T04:09:28.182Z,7.10
2022-11-27T04:11:55.752Z,7.10
2022-11-27T04:14:23.349Z,7.10
2022-11-27T04:16:50.923Z,7.10
2022-11-27T04:19:18.598Z,7.10
2022-11-27T04:21:46.155Z,7.10
2022-11-27T04:24:13.833Z,7.10
2022-11-27T04:26:41.431Z,7.00
2022-11-27T04:29:09.067Z,7.00
2022-11-27T04:31:36.802Z,6.90
2022-11-27T04:34:04.459Z,7.00
2022-11-27T04:36:37.585Z,7.00
2022-11-27T04:39:06.869Z,7.00
2022-11-27T04:41:34.473Z,7.00
2022-11-27T04:44:02.070Z,7.00
2022-11-27T04:46:29.713Z,7.00
2022-11-27T04:48:57.719Z,7.00
2022-11-27T04:51:25.370Z,6.90
2022-11-27T04:53:52.959Z,6.90
2022-11-27T04:56:20.786Z,7.00
2022-11-27T04:58:48.555Z,6.90
2022-11-27T05:01:16.223Z,6.90
2022-11-27T05:03:43.823Z,6.90
2022-11-27T05:06:11.472Z,6.90
2022-11-27T05:08:39.059Z,6.90
2022-11-27T05:11:13.854Z,6.90
2022-11-27T05:13:42.110Z,6.90
2022-11-27T05:16:10.359Z,6.90
2022-11-27T05:18:37.975Z,6.90
2022-11-27T05:21:08.185Z,6.90
2022-11-27T05:23:35.983Z,6.90
2022-11-27T05:26:03.743Z,6.90
2022-11-27T05:28:31.370Z,6.90
2022-11-27T05:30:59.672Z,6.80
2022-11-27T05:33:27.284Z,6.80
2022-11-27T05:35:54.836Z,6.80
2022-11-27T05:38:22.414Z,6.80
2022-11-27T05:40:50.013Z,6.90
2022-11-27T05:43:18.018Z,6.80
2022-11-27T05:45:45.535Z,6.90
2022-11-27T05:48:13.143Z,6.80
2022-11-27T05:50:40.776Z,6.80
2022-11-27T05:53:08.499Z,6.90
2022-11-27T05:55:36.076Z,6.80
2022-11-27T05:58:03.736Z,6.80
2022-11-27T06:00:31.455Z,6.80
2022-11-27T06:02:59.258Z,6.80
2022-11-27T06:05:27.034Z,6.80
2022-11-27T06:07:55.115Z,6.80
2022-11-27T06:10:22.788Z,6.80
2022-11-27T06:12:50.436Z,6.70
2022-11-27T06:15:18.148Z,6.70
2022-11-27T06:17:45.770Z,6.70
2022-11-27T06:20:13.549Z,6.70
2022-11-27T06:22:41.154Z,6.70
2022-11-27T06:25:09.406Z,6.70
2022-11-27T06:27:37.157Z,6.70
2022-11-27T06:30:06.079Z,6.70
2022-11-27T06:32:33.752Z,6.70
2022-11-27T06:35:01.622Z,6.70
2022-11-27T06:37:29.223Z,6.70
2022-11-27T06:39:56.985Z,6.70
2022-11-27T06:42:24.611Z,6.70
2022-11-27T06:44:52.189Z,6.80
2022-11-27T06:47:19.772Z,6.70
2022-11-27T06:49:47.394Z,6.70
2022-11-27T06:52:14.985Z,6.70
2022-11-27T06:54:42.814Z,6.70
2022-11-27T06:57:11.364Z,6.70
2022-11-27T06:59:39.016Z,6.70
2022-11-27T07:02:06.744Z,6.70
2022-11-27T07:04:34.405Z,6.70
2022-11-27T07:07:02.077Z,6.70
2022-11-27T07:09:29.650Z,6.70
2022-11-27T07:11:57.229Z,6.70
2022-11-27T07:14:24.866Z,6.70
2022-11-27T07:16:52.556Z,6.70
2022-11-27T07:19:20.541Z,6.70
2022-11-27T07:21:48.158Z,6.80
2022-11-27T07:24:15.753Z,6.70
2022-11-27T07:26:43.333Z,6.70
2022-11-27T07:29:10.982Z,6.70
2022-11-27T07:31:38.630Z,6.70
2022-11-27T07:34:11.674Z,6.70
2022-11-27T07:36:41.788Z,6.70
2022-11-27T07:39:09.344Z,6.70
2022-11-27T07:41:36.956Z,6.70
2022-11-27T07:44:05.096Z,6.70
2022-11-27T07:46:32.869Z,6.70
2022-11-27T07:49:00.673Z,6.70
2022-11-27T07:51:28.703Z,6.70
2022-11-27T07:53:56.406Z,6.70
2022-11-27T07:56:24.066Z,6.70
2022-11-27T07:58:51.684Z,6.60
2022-11-27T08:01:21.550Z,6.70
2022-11-27T08:03:49.399Z,6.70
2022-11-27T08:06:24.406Z,6.70
2022-11-27T08:08:53.439Z,6.70
2022-11-27T08:11:25.540Z,6.70
2022-11-27T08:13:58.623Z,6.70
2022-11-27T08:16:27.358Z,6.70
2022-11-27T08:18:55.229Z,6.70
2022-11-27T08:21:23.141Z,6.70
2022-11-27T08:23:51.030Z,6.70
2022-11-27T08:26:19.504Z,6.70
2022-11-27T08:28:47.607Z,6.70
2022-11-27T08:31:15.723Z,6.70
2022-11-27T08:33:43.419Z,6.70
2022-11-27T08:36:16.250Z,6.70
2022-11-27T08:38:46.807Z,6.70
2022-11-27T08:41:14.647Z,6.70
2022-11-27T08:43:42.278Z,6.70
2022-11-27T08:46:10.290Z,6.70
2022-11-27T08:48:38.114Z,6.70
2022-11-27T08:51:12.520Z,6.80
2022-11-27T08:53:41.165Z,6.80
2022-11-27T08:56:16.720Z,6.80
2022-11-27T08:58:45.961Z,6.80
2022-11-27T09:01:21.109Z,6.70
2022-11-27T09:03:49.760Z,6.70
2022-11-27T09:06:21.755Z,6.80
2022-11-27T09:08:50.210Z,6.70
2022-11-27T09:11:20.198Z,6.70
2022-11-27T09:13:48.203Z,6.70
2022-11-27T09:16:21.859Z,6.70
2022-11-27T09:18:52.589Z,6.70
2022-11-27T09:21:24.543Z,6.70
2022-11-27T09:23:57.520Z,6.70
2022-11-27T09:26:25.917Z,6.80
2022-11-27T09:28:55.200Z,6.70
2022-11-27T09:31:23.573Z,6.80
2022-11-27T09:33:51.398Z,6.80
2022-11-27T09:36:24.800Z,6.80
2022-11-27T09:38:53.882Z,6.70
2022-11-27T09:41:39.868Z,6.80
2022-11-27T09:44:27.840Z,6.70
2022-11-27T09:46:57.329Z,6.80
2022-11-27T09:49:38.462Z,6.70
2022-11-27T09:52:37.269Z,6.80
2022-11-27T09:55:32.973Z,6.80
2022-11-27T09:58:36.643Z,6.80
2022-11-27T10:01:32.964Z,6.80
2022-11-27T10:04:06.615Z,6.80
2022-11-27T10:07:15.375Z,6.80
2022-11-27T10:10:25.817Z,6.80
2022-11-27T10:13:05.258Z,6.80
2022-11-27T10:15:59.129Z,6.90
2022-11-27T10:18:40.464Z,6.90
2022-11-27T10:21:25.686Z,6.90
2022-11-27T10:24:02.855Z,6.90
2022-11-27T10:26:45.300Z,6.90
2022-11-27T10:29:48.849Z,6.90
2022-11-27T10:32:53.650Z,6.90
2022-11-27T10:35:19.390Z,7.00
2022-11-27T10:37:59.739Z,7.00
2022-11-27T10:40:52.725Z,7.00
2022-11-27T10:43:25.758Z,7.00
2022-11-27T10:46:19.572Z,7.00
2022-11-27T10:48:47.317Z,7.00
2022-11-27T10:51:19.647Z,7.00
2022-11-27T10:53:51.233Z,7.00
2022-11-27T10:56:35.117Z,7.10
2022-11-27T10:59:11.983Z,7.10
2022-11-27T11:01:50.463Z,7.10
2022-11-27T11:04:43.010Z,7.20
2022-11-27T11:07:29.245Z,7.20
2022-11-27T11:09:57.091Z,7.20
2022-11-27T11:12:24.823Z,7.20
2022-11-27T11:14:56.654Z,7.20
2022-11-27T11:17:37.202Z,7.20
2022-11-27T11:20:21.799Z,7.10
2022-11-27T11:22:49.656Z,7.10
2022-11-27T11:25:20.380Z,7.10
2022-11-27T11:27:50.126Z,7.10
2022-11-27T11:30:24.287Z,7.10
2022-11-27T11:33:00.056Z,7.10
2022-11-27T11:35:38.557Z,7.10
2022-11-27T11:38:17.554Z,7.10
2022-11-27T11:41:00.636Z,7.10
2022-11-27T11:43:36.371Z,7.10
2022-11-27T11:46:16.965Z,7.10
2022-11-27T11:48:55.689Z,7.10
2022-11-27T11:51:50.119Z,7.10
2022-11-27T11:54:49.593Z,7.10
2022-11-27T11:57:46.101Z,7.00
2022-11-27T12:00:25.223Z,7.10
2022-11-27T12:03:15.824Z,7.00
2022-11-27T12:06:12.764Z,7.10
2022-11-27T12:09:35.441Z,7.10
2022-11-27T12:12:24.849Z,7.10
2022-11-27T12:15:36.484Z,7.10
2022-11-27T12:18:31.836Z,7.10
2022-11-27T12:21:22.585Z,7.10
2022-11-27T12:24:06.292Z,7.10
2022-11-27T12:26:59.645Z,7.10
2022-11-27T12:29:52.265Z,7.10
2022-11-27T12:32:30.645Z,7.10
2022-11-27T12:35:16.819Z,7.10
2022-11-27T12:38:13.302Z,7.10
2022-11-27T12:41:00.663Z,7.10
2022-11-27T12:43:36.164Z,7.10
2022-11-27T12:46:15.428Z,7.10
2022-11-27T12:48:55.724Z,7.10
2022-11-27T12:51:31.611Z,7.10
2022-11-27T12:54:10.946Z,7.20
2022-11-27T12:56:48.456Z,7.20
2022-11-27T12:59:33.693Z,7.10
2022-11-27T13:02:28.427Z,7.20
2022-11-27T13:05:36.780Z,7.20
2022-11-27T13:08:34.814Z,7.20
2022-11-27T13:11:08.812Z,7.20
2022-11-27T13:13:45.613Z,7.20
2022-11-27T13:16:22.657Z,7.20
2022-11-27T13:19:14.692Z,7.20
2022-11-27T13:21:43.258Z,7.20
2022-11-27T13:24:13.439Z,7.20
2022-11-27T13:26:50.173Z,7.20
2022-11-27T13:29:29.337Z,7.20
2022-11-27T13:32:01.016Z,7.20
2022-11-27T13:34:31.012Z,7.20
2022-11-27T13:37:02.923Z,7.20
2022-11-27T13:39:35.943Z,7.20
2022-11-27T13:42:19.090Z,7.20
2022-11-27T13:45:21.552Z,7.20
2022-11-27T13:47:50.502Z,7.20
2022-11-27T13:50:25.728Z,7.20
2022-11-27T13:53:07.405Z,7.10
2022-11-27T13:55:51.520Z,7.20
2022-11-27T13:58:34.328Z,7.20
2022-11-27T14:01:23.959Z,7.20
2022-11-27T14:03:53.008Z,7.10
2022-11-27T14:06:30.614Z,7.20
2022-11-27T14:09:05.397Z,7.10
2022-11-27T14:11:41.334Z,7.20
2022-11-27T14:14:23.148Z,7.10
2022-11-27T14:17:08.407Z,7.10
2022-11-27T14:19:47.143Z,7.10
2022-11-27T14:23:07.539Z,7.10
2022-11-27T14:25:38.084Z,7.10
2022-11-27T14:28:26.161Z,7.20
2022-11-27T14:30:57.503Z,7.20
2022-11-27T14:33:47.371Z,7.20
2022-11-27T14:36:34.696Z,7.20
2022-11-27T14:39:04.441Z,7.20
2022-11-27T14:41:32.528Z,7.20
2022-11-27T14:44:14.802Z,7.20
2022-11-27T14:46:42.677Z,7.20
2022-11-27T14:49:19.490Z,7.20
2022-11-27T14:51:48.052Z,7.20
2022-11-27T14:54:28.843Z,7.20
2022-11-27T14:56:57.436Z,7.20
2022-11-27T14:59:26.047Z,7.20
2022-11-27T15:02:22.235Z,7.20
2022-11-27T15:05:05.008Z,7.20
2022-11-27T15:07:44.087Z,7.20
2022-11-27T15:10:38.162Z,7.20
2022-11-27T15:13:08.821Z,7.20
2022-11-27T15:15:44.324Z,7.20
2022-11-27T15:18:24.270Z,7.30
2022-11-27T15:20:53.095Z,7.30
2022-11-27T15:23:31.169Z,7.20
2022-11-27T15:26:15.037Z,7.20
2022-11-27T15:28:57.413Z,7.30
2022-11-27T15:31:29.554Z,7.30
2022-11-27T15:34:15.711Z,7.20
2022-11-27T15:36:52.649Z,7.20
2022-11-27T15:39:26.674Z,7.20
2022-11-27T15:42:00.863Z,7.20
2022-11-27T15:44:31.861Z,7.20
2022-11-27T15:47:02.888Z,7.20
2022-11-27T15:49:30.776Z,7.20
2022-11-27T15:51:58.983Z,7.20
2022-11-27T15:54:26.775Z,7.20
2022-11-27T15:56:54.402Z,7.20
2022-11-27T15:59:22.345Z,7.20
2022-11-27T16:01:50.176Z,7.20
2022-11-27T16:04:17.939Z,7.20
2022-11-27T16:06:46.066Z,7.20
2022-11-27T16:09:13.705Z,7.20
2022-11-27T16:11:41.612Z,7.20
2022-11-27T16:14:09.706Z,7.20
2022-11-27T16:16:38.241Z,7.20
2022-11-27T16:19:06.539Z,7.20
2022-11-27T16:21:36.607Z,7.20
2022-11-27T16:24:08.098Z,7.20
2022-11-27T16:26:39.353Z,7.20
2022-11-27T16:29:10.264Z,7.20
2022-11-27T16:31:37.983Z,7.20
2022-11-27T16:34:06.664Z,7.20
2022-11-27T16:36:34.851Z,7.20
2022-11-27T16:39:03.483Z,7.20
2022-11-27T16:41:32.047Z,7.10
2022-11-27T16:43:59.760Z,7.10
2022-11-27T16:46:30.067Z,7.20
2022-11-27T16:49:00.811Z,7.20
2022-11-27T16:51:34.112Z,7.20
2022-11-27T16:54:05.495Z,7.20
2022-11-27T16:56:35.176Z,7.20
2022-11-27T16:59:14.428Z,7.10
2022-11-27T17:01:42.960Z,7.20
2022-11-27T17:04:18.650Z,7.20
2022-11-27T17:06:48.019Z,7.20
2022-11-27T17:09:16.489Z,7.20
2022-11-27T17:11:48.743Z,7.10
2022-11-27T17:14:18.465Z,7.20
2022-11-27T17:16:46.387Z,7.20
2022-11-27T17:19:16.558Z,7.20
2022-11-27T17:21:46.043Z,7.10
2022-11-27T17:24:16.865Z,7.10
2022-11-27T17:26:47.988Z,7.10
2022-11-27T17:29:20.995Z,7.10
2022-11-27T17:31:51.194Z,7.10
2022-11-27T17:34:19.499Z,7.10
2022-11-27T17:36:53.386Z,7.10
2022-11-27T17:39:21.653Z,7.10
2022-11-27T17:41:49.645Z,7.10
2022-11-27T17:44:17.348Z,7.10
2022-11-27T17:46:49.961Z,7.10
2022-11-27T17:49:20.195Z,7.10
2022-11-27T17:51:50.144Z,7.20
2022-11-27T17:54:18.354Z,7.10
2022-11-27T17:56:51.223Z,7.10
2022-11-27T17:59:20.026Z,7.10
2022-11-27T18:01:51.302Z,7.10
2022-11-27T18:04:20.127Z,7.10
2022-11-27T18:06:47.933Z,7.10
2022-11-27T18:09:15.546Z,7.10
2022-11-27T18:11:43.202Z,7.10
2022-11-27T18:14:13.661Z,7.10
2022-11-27T18:16:42.067Z,7.10
2022-11-27T18:19:11.768Z,7.10
2022-11-27T18:21:40.060Z,7.10
2022-11-27T18:24:23.009Z,7.10
2022-11-27T18:29:42.671Z,7.10
2022-11-27T18:32:12.341Z,7.00
2022-11-27T18:34:41.026Z,7.00
2022-11-27T18:37:09.114Z,7.10
2022-11-27T18:39:38.212Z,7.10
2022-11-27T18:42:07.059Z,7.10
2022-11-27T18:44:39.674Z,7.10
2022-11-27T18:47:11.559Z,7.10
2022-11-27T18:49:40.937Z,7.10
2022-11-27T18:52:10.614Z,7.10
2022-11-27T18:54:38.547Z,7.10
2022-11-27T18:57:07.441Z,7.10
2022-11-27T18:59:35.986Z,7.10
2022-11-27T19:02:05.042Z,7.20
2022-11-27T19:04:37.455Z,7.20
2022-11-27T19:07:05.603Z,7.20
2022-11-27T19:09:34.110Z,7.20
2022-11-27T19:12:02.235Z,7.20
2022-11-27T19:14:30.956Z,7.20
2022-11-27T19:16:58.684Z,7.20
2022-11-27T19:19:53.519Z,7.20
2022-11-27T19:22:16.895Z,7.20
2022-11-27T19:24:44.639Z,7.20
2022-11-27T19:27:13.181Z,7.30
2022-11-27T19:29:41.314Z,7.20
2022-11-27T19:32:09.415Z,7.30
2022-11-27T19:34:37.925Z,7.30
2022-11-27T19:37:06.407Z,7.30
2022-11-27T19:39:34.442Z,7.30
2022-11-27T19:42:02.178Z,7.30
2022-11-27T19:44:29.897Z,7.40
2022-11-27T19:46:58.065Z,7.40
2022-11-27T19:49:26.975Z,7.40
2022-11-27T19:51:54.683Z,7.40
2022-11-27T19:54:23.905Z,7.40
2022-11-27T19:56:52.973Z,7.50
2022-11-27T19:59:25.528Z,7.50
2022-11-27T20:01:55.027Z,7.50
2022-11-27T20:04:29.066Z,7.50
2022-11-27T20:06:57.658Z,7.60
2022-11-27T20:09:25.425Z,7.60
2022-11-27T20:11:53.350Z,7.60
2022-11-27T20:14:21.133Z,7.60
2022-11-27T20:16:49.052Z,7.60
2022-11-27T20:19:17.523Z,7.70
2022-11-27T20:21:45.932Z,7.70
2022-11-27T20:24:14.772Z,7.70
2022-11-27T20:26:43.195Z,7.80
2022-11-27T20:29:13.109Z,7.80
2022-11-27T20:31:43.872Z,7.80
2022-11-27T20:34:20.324Z,7.80
2022-11-27T20:36:49.504Z,7.80
2022-11-27T20:39:21.259Z,7.90
2022-11-27T20:41:51.878Z,7.80
2022-11-27T20:44:20.145Z,7.90
2022-11-27T20:46:49.068Z,7.90
2022-11-27T20:49:18.255Z,7.90
2022-11-27T20:51:48.991Z,7.90
2022-11-27T20:54:19.149Z,7.90
2022-11-27T20:56:51.039Z,8.00
2022-11-27T20:59:19.731Z,8.00
2022-11-27T21:01:48.826Z,8.00
2022-11-27T21:04:24.475Z,8.00
2022-11-27T21:06:53.773Z,8.00
2022-11-27T21:09:21.920Z,8.00
2022-11-27T21:11:49.678Z,8.00
2022-11-27T21:14:17.501Z,8.00
2022-11-27T21:16:48.607Z,8.00
2022-11-27T21:19:26.291Z,8.10
2022-11-27T21:21:57.130Z,8.00
2022-11-27T21:24:27.879Z,8.10
2022-11-27T21:26:56.848Z,8.00
2022-11-27T21:29:27.421Z,8.10
2022-11-27T21:31:57.078Z,8.10
2022-11-27T21:34:25.675Z,8.00
2022-11-27T21:36:53.588Z,8.10
2022-11-27T21:39:21.698Z,8.10
2022-11-27T21:41:52.748Z,8.10
2022-11-27T21:44:22.318Z,8.20
2022-11-27T21:46:51.399Z,8.10
2022-11-27T21:49:20.812Z,8.20
2022-11-27T21:51:54.878Z,8.20
2022-11-27T21:54:30.293Z,8.20
2022-11-27T21:56:57.926Z,8.20
2022-11-27T21:59:25.628Z,8.20
2022-11-27T22:01:53.440Z,8.20
2022-11-27T22:04:21.373Z,8.10
2022-11-27T22:06:49.029Z,8.20
2022-11-27T22:09:17.082Z,8.20
2022-11-27T22:11:46.559Z,8.20
2022-11-27T22:14:16.093Z,8.20
2022-11-27T22:16:46.370Z,8.20
2022-11-27T22:19:16.599Z,8.20
2022-11-27T22:21:44.715Z,8.20
2022-11-27T22:24:18.477Z,8.20
2022-11-27T22:26:48.437Z,8.20
2022-11-27T22:29:17.078Z,8.20
2022-11-27T22:31:44.890Z,8.20
2022-11-27T22:34:13.097Z,8.20
2022-11-27T22:36:40.761Z,8.20
2022-11-27T22:39:09.219Z,8.20
2022-11-27T22:41:39.617Z,8.30
2022-11-27T22:44:14.868Z,8.20
2022-11-27T22:46:44.140Z,8.30
2022-11-27T22:49:14.912Z,8.30
2022-11-27T22:51:42.992Z,8.30
2022-11-27T22:54:14.014Z,8.30
2022-11-27T22:56:41.796Z,8.30
2022-11-27T23:02:01.723Z,8.30
2022-11-27T23:04:29.388Z,8.30
2022-11-27T23:06:58.796Z,8.30
2022-11-27T23:09:26.858Z,8.40
2022-11-27T23:11:56.386Z,8.40
2022-11-27T23:14:25.635Z,8.30
2022-11-27T23:16:53.337Z,8.30
2022-11-27T23:19:21.189Z,8.30
2022-11-27T23:21:48.779Z,8.40
2022-11-27T23:24:16.532Z,8.40
2022-11-27T23:26:45.854Z,8.40
2022-11-27T23:29:14.417Z,8.40
2022-11-27T23:31:42.735Z,8.50
2022-11-27T23:34:14.094Z,8.40
2022-11-27T23:36:42.549Z,8.40
2022-11-27T23:39:13.312Z,8.40
2022-11-27T23:41:41.589Z,8.40
2022-11-27T23:44:09.694Z,8.40
2022-11-27T23:46:37.377Z,8.40
2022-11-27T23:49:05.207Z,8.40
2022-11-27T23:51:33.074Z,8.50
2022-11-27T23:54:01.641Z,8.40
2022-11-27T23:56:32.159Z,8.40
2022-11-27T23:59:00.751Z,8.40
